Terminal Aerodrome Forecast
Issued by NWS

Home | Current Version | Previous Version | Text Only | Print | Product List | Glossary On
Versions: 1 2 3 4 5 6 7 8 9 10 11 12 13 14 15 16 17 18 19 20 21 22 23 24 25 26 27 28 29 30 31 32 33
000
FTUS43 KICT 221459 AAU
TAFRSL
TAF AMD
KRSL 221459Z 2215/2312 35008KT 3SM BR SCT003 BKN020
      TEMPO 2215/2218 1/2SM FG BKN003
     FM221800 31018G27KT 5SM BR SCT003 BKN015
     FM230000 36022G32KT P6SM BKN015
     FM230300 36022G32KT P6SM VCSH BKN025
     FM230600 35020G30KT P6SM BKN025
     FM230900 35020G30KT P6SM BKN050=

USA.gov is the U.S. government's official web portal to all federal, state and local government web resources and services.